Аэропорт: Бесовец. Петрозаводск

ICAO: ULPB

METAR:
2022-06-26 11:00:00
ULPB 261100Z 23005MPS CAVOK 30/18 Q1018 R19/09//65 NOSIG RMK QFE759/1013
METAR:
Информация по данной станции не доступна